sensor_id;sensor_type;location;lat;lon;timestamp;temperature;humidity
74368;DHT22;64991;41.090;-8.118;2023-11-21T00:01:29;19.40;85.50
74368;DHT22;64991;41.090;-8.118;2023-11-21T00:06:34;19.40;85.70
74368;DHT22;64991;41.090;-8.118;2023-11-21T00:11:38;19.30;85.30
74368;DHT22;64991;41.090;-8.118;2023-11-21T00:16:41;19.40;85.40
74368;DHT22;64991;41.090;-8.118;2023-11-21T00:21:47;19.30;85.50
74368;DHT22;64991;41.090;-8.118;2023-11-21T00:26:50;19.40;85.50
74368;DHT22;64991;41.090;-8.118;2023-11-21T00:31:54;19.30;85.50
74368;DHT22;64991;41.090;-8.118;2023-11-21T00:36:59;19.30;85.50
74368;DHT22;64991;41.090;-8.118;2023-11-21T00:42:04;19.30;85.70
74368;DHT22;64991;41.090;-8.118;2023-11-21T00:47:09;19.30;85.50
74368;DHT22;64991;41.090;-8.118;2023-11-21T00:52:14;19.30;85.20
74368;DHT22;64991;41.090;-8.118;2023-11-21T00:57:18;19.30;85.50
74368;DHT22;64991;41.090;-8.118;2023-11-21T01:02:21;19.30;85.60
74368;DHT22;64991;41.090;-8.118;2023-11-21T01:07:26;19.40;85.20
74368;DHT22;64991;41.090;-8.118;2023-11-21T01:12:31;19.30;85.40
74368;DHT22;64991;41.090;-8.118;2023-11-21T01:17:34;19.30;85.30
74368;DHT22;64991;41.090;-8.118;2023-11-21T01:22:40;19.30;85.40
74368;DHT22;64991;41.090;-8.118;2023-11-21T01:27:43;19.30;85.20
74368;DHT22;64991;41.090;-8.118;2023-11-21T01:32:47;19.30;85.20
74368;DHT22;64991;41.090;-8.118;2023-11-21T01:37:51;19.30;85.20
74368;DHT22;64991;41.090;-8.118;2023-11-21T01:42:55;19.20;85.20
74368;DHT22;64991;41.090;-8.118;2023-11-21T01:47:59;19.30;84.90
74368;DHT22;64991;41.090;-8.118;2023-11-21T01:53:04;19.30;85.00
74368;DHT22;64991;41.090;-8.118;2023-11-21T01:58:08;19.30;85.00
74368;DHT22;64991;41.090;-8.118;2023-11-21T02:03:13;19.20;84.70
74368;DHT22;64991;41.090;-8.118;2023-11-21T02:08:18;19.20;84.90
74368;DHT22;64991;41.090;-8.118;2023-11-21T02:13:21;19.20;84.90
74368;DHT22;64991;41.090;-8.118;2023-11-21T02:18:24;19.20;84.70
74368;DHT22;64991;41.090;-8.118;2023-11-21T02:23:32;19.20;84.50
74368;DHT22;64991;41.090;-8.118;2023-11-21T02:28:36;19.30;84.90
74368;DHT22;64991;41.090;-8.118;2023-11-21T02:33:40;19.20;84.70
74368;DHT22;64991;41.090;-8.118;2023-11-21T02:38:45;19.30;84.50
74368;DHT22;64991;41.090;-8.118;2023-11-21T02:43:49;19.30;84.40
74368;DHT22;64991;41.090;-8.118;2023-11-21T02:48:52;19.30;84.40
74368;DHT22;64991;41.090;-8.118;2023-11-21T02:53:57;19.20;84.60
74368;DHT22;64991;41.090;-8.118;2023-11-21T02:59:02;19.20;84.60
74368;DHT22;64991;41.090;-8.118;2023-11-21T03:04:06;19.20;84.30
74368;DHT22;64991;41.090;-8.118;2023-11-21T03:09:11;19.20;84.40
74368;DHT22;64991;41.090;-8.118;2023-11-21T03:14:15;19.20;84.60
74368;DHT22;64991;41.090;-8.118;2023-11-21T03:19:18;19.20;84.30
74368;DHT22;64991;41.090;-8.118;2023-11-21T03:24:24;19.30;84.20
74368;DHT22;64991;41.090;-8.118;2023-11-21T03:29:28;19.20;84.30
74368;DHT22;64991;41.090;-8.118;2023-11-21T03:34:31;19.30;84.40
74368;DHT22;64991;41.090;-8.118;2023-11-21T03:39:36;19.20;84.20
74368;DHT22;64991;41.090;-8.118;2023-11-21T03:44:40;19.20;84.30
74368;DHT22;64991;41.090;-8.118;2023-11-21T03:49:43;19.30;84.40
74368;DHT22;64991;41.090;-8.118;2023-11-21T03:54:48;19.30;84.10
74368;DHT22;64991;41.090;-8.118;2023-11-21T03:59:52;19.30;84.30
74368;DHT22;64991;41.090;-8.118;2023-11-21T04:04:55;19.20;84.20
74368;DHT22;64991;41.090;-8.118;2023-11-21T04:10:00;19.30;84.20
74368;DHT22;64991;41.090;-8.118;2023-11-21T04:15:04;19.20;84.10
74368;DHT22;64991;41.090;-8.118;2023-11-21T04:20:10;19.20;83.90
74368;DHT22;64991;41.090;-8.118;2023-11-21T04:25:16;19.30;84.10
74368;DHT22;64991;41.090;-8.118;2023-11-21T04:30:19;19.20;83.90
74368;DHT22;64991;41.090;-8.118;2023-11-21T04:35:23;19.30;83.80
74368;DHT22;64991;41.090;-8.118;2023-11-21T04:40:27;19.30;84.10
74368;DHT22;64991;41.090;-8.118;2023-11-21T04:45:31;19.30;84.00
74368;DHT22;64991;41.090;-8.118;2023-11-21T04:50:34;19.20;84.00
74368;DHT22;64991;41.090;-8.118;2023-11-21T04:55:39;19.30;84.00
74368;DHT22;64991;41.090;-8.118;2023-11-21T05:00:43;19.30;83.80
74368;DHT22;64991;41.090;-8.118;2023-11-21T05:05:46;19.20;84.00
74368;DHT22;64991;41.090;-8.118;2023-11-21T05:10:51;19.20;84.00
74368;DHT22;64991;41.090;-8.118;2023-11-21T05:15:55;19.20;83.90
74368;DHT22;64991;41.090;-8.118;2023-11-21T05:20:59;19.20;83.90
74368;DHT22;64991;41.090;-8.118;2023-11-21T05:26:04;19.20;83.70
74368;DHT22;64991;41.090;-8.118;2023-11-21T05:31:08;19.10;83.50
74368;DHT22;64991;41.090;-8.118;2023-11-21T05:36:17;19.20;83.50
74368;DHT22;64991;41.090;-8.118;2023-11-21T05:41:22;19.10;83.30
74368;DHT22;64991;41.090;-8.118;2023-11-21T05:46:27;19.10;83.40
74368;DHT22;64991;41.090;-8.118;2023-11-21T05:51:30;19.10;83.60
74368;DHT22;64991;41.090;-8.118;2023-11-21T05:56:36;19.20;83.50
74368;DHT22;64991;41.090;-8.118;2023-11-21T06:01:39;19.10;83.30
74368;DHT22;64991;41.090;-8.118;2023-11-21T06:06:42;19.10;83.20
74368;DHT22;64991;41.090;-8.118;2023-11-21T06:11:47;19.10;83.40
74368;DHT22;64991;41.090;-8.118;2023-11-21T06:16:51;19.10;83.10
74368;DHT22;64991;41.090;-8.118;2023-11-21T06:21:54;19.10;83.00
74368;DHT22;64991;41.090;-8.118;2023-11-21T06:26:59;19.10;83.20
74368;DHT22;64991;41.090;-8.118;2023-11-21T06:32:03;19.10;83.00
74368;DHT22;64991;41.090;-8.118;2023-11-21T06:37:07;19.20;82.90
74368;DHT22;64991;41.090;-8.118;2023-11-21T06:42:11;19.00;83.20
74368;DHT22;64991;41.090;-8.118;2023-11-21T06:47:15;19.00;83.20
74368;DHT22;64991;41.090;-8.118;2023-11-21T06:52:19;19.10;83.20
74368;DHT22;64991;41.090;-8.118;2023-11-21T06:57:24;19.10;83.20
74368;DHT22;64991;41.090;-8.118;2023-11-21T07:02:27;19.00;83.00
74368;DHT22;64991;41.090;-8.118;2023-11-21T07:07:31;19.00;83.20
74368;DHT22;64991;41.090;-8.118;2023-11-21T07:12:39;19.00;83.10
74368;DHT22;64991;41.090;-8.118;2023-11-21T07:17:42;19.00;83.00
74368;DHT22;64991;41.090;-8.118;2023-11-21T07:22:46;19.00;82.70
74368;DHT22;64991;41.090;-8.118;2023-11-21T07:27:51;19.00;83.10
74368;DHT22;64991;41.090;-8.118;2023-11-21T07:32:56;19.10;82.80
74368;DHT22;64991;41.090;-8.118;2023-11-21T07:38:00;19.00;82.70
74368;DHT22;64991;41.090;-8.118;2023-11-21T07:43:05;18.90;82.90
74368;DHT22;64991;41.090;-8.118;2023-11-21T07:48:08;19.00;82.60
74368;DHT22;64991;41.090;-8.118;2023-11-21T07:53:12;19.00;82.70
74368;DHT22;64991;41.090;-8.118;2023-11-21T07:58:17;18.90;82.50
74368;DHT22;64991;41.090;-8.118;2023-11-21T08:03:21;19.00;82.60
74368;DHT22;64991;41.090;-8.118;2023-11-21T08:08:25;19.00;82.50
74368;DHT22;64991;41.090;-8.118;2023-11-21T08:13:30;18.90;82.50
74368;DHT22;64991;41.090;-8.118;2023-11-21T08:18:36;19.00;82.30
74368;DHT22;64991;41.090;-8.118;2023-11-21T08:23:39;18.90;82.20
74368;DHT22;64991;41.090;-8.118;2023-11-21T08:28:44;18.90;82.30
74368;DHT22;64991;41.090;-8.118;2023-11-21T08:33:49;19.00;82.20
74368;DHT22;64991;41.090;-8.118;2023-11-21T08:38:52;18.90;82.20
74368;DHT22;64991;41.090;-8.118;2023-11-21T08:43:57;18.90;82.40
74368;DHT22;64991;41.090;-8.118;2023-11-21T08:49:01;18.90;82.10
74368;DHT22;64991;41.090;-8.118;2023-11-21T08:54:05;19.00;81.60
74368;DHT22;64991;41.090;-8.118;2023-11-21T08:59:11;19.00;81.90
74368;DHT22;64991;41.090;-8.118;2023-11-21T09:04:16;18.90;82.00
74368;DHT22;64991;41.090;-8.118;2023-11-21T09:09:20;18.90;81.90
74368;DHT22;64991;41.090;-8.118;2023-11-21T09:14:25;18.90;81.90
74368;DHT22;64991;41.090;-8.118;2023-11-21T09:19:28;19.00;81.80
74368;DHT22;64991;41.090;-8.118;2023-11-21T09:24:32;18.80;81.60
74368;DHT22;64991;41.090;-8.118;2023-11-21T09:29:39;18.80;81.70
74368;DHT22;64991;41.090;-8.118;2023-11-21T09:34:43;18.90;82.00
74368;DHT22;64991;41.090;-8.118;2023-11-21T09:39:47;18.80;81.90
74368;DHT22;64991;41.090;-8.118;2023-11-21T09:44:54;18.90;81.90
74368;DHT22;64991;41.090;-8.118;2023-11-21T09:50:01;18.90;82.10
74368;DHT22;64991;41.090;-8.118;2023-11-21T09:55:05;19.00;82.00
74368;DHT22;64991;41.090;-8.118;2023-11-21T10:00:12;18.90;81.50
74368;DHT22;64991;41.090;-8.118;2023-11-21T10:05:19;18.90;81.70
74368;DHT22;64991;41.090;-8.118;2023-11-21T10:10:27;18.90;81.90
74368;DHT22;64991;41.090;-8.118;2023-11-21T10:15:32;18.90;81.80
74368;DHT22;64991;41.090;-8.118;2023-11-21T10:20:37;19.00;81.90
74368;DHT22;64991;41.090;-8.118;2023-11-21T10:25:41;18.90;82.00
74368;DHT22;64991;41.090;-8.118;2023-11-21T10:30:46;19.00;81.90
74368;DHT22;64991;41.090;-8.118;2023-11-21T10:35:49;18.90;82.00
74368;DHT22;64991;41.090;-8.118;2023-11-21T10:40:53;18.90;82.10
74368;DHT22;64991;41.090;-8.118;2023-11-21T10:45:58;18.90;82.00
74368;DHT22;64991;41.090;-8.118;2023-11-21T10:51:06;19.00;82.30
74368;DHT22;64991;41.090;-8.118;2023-11-21T10:56:11;18.90;82.20
74368;DHT22;64991;41.090;-8.118;2023-11-21T11:01:21;19.00;82.20
74368;DHT22;64991;41.090;-8.118;2023-11-21T11:06:25;19.00;82.10
74368;DHT22;64991;41.090;-8.118;2023-11-21T11:11:30;19.00;82.30
74368;DHT22;64991;41.090;-8.118;2023-11-21T11:16:35;18.90;82.60
74368;DHT22;64991;41.090;-8.118;2023-11-21T11:21:43;19.00;82.60
74368;DHT22;64991;41.090;-8.118;2023-11-21T11:26:51;18.90;82.30
74368;DHT22;64991;41.090;-8.118;2023-11-21T11:32:03;19.00;82.60
74368;DHT22;64991;41.090;-8.118;2023-11-21T11:37:13;19.00;82.60
74368;DHT22;64991;41.090;-8.118;2023-11-21T11:42:16;19.00;82.60
74368;DHT22;64991;41.090;-8.118;2023-11-21T11:47:23;19.00;82.70
74368;DHT22;64991;41.090;-8.118;2023-11-21T11:52:37;19.00;82.80
74368;DHT22;64991;41.090;-8.118;2023-11-21T11:57:42;19.00;82.70
74368;DHT22;64991;41.090;-8.118;2023-11-21T12:02:48;19.00;82.60
74368;DHT22;64991;41.090;-8.118;2023-11-21T12:07:53;19.00;82.60
74368;DHT22;64991;41.090;-8.118;2023-11-21T12:13:00;19.00;82.70
74368;DHT22;64991;41.090;-8.118;2023-11-21T12:18:05;19.10;82.90
74368;DHT22;64991;41.090;-8.118;2023-11-21T12:23:09;19.00;82.70
74368;DHT22;64991;41.090;-8.118;2023-11-21T12:28:13;19.00;82.60
74368;DHT22;64991;41.090;-8.118;2023-11-21T12:33:18;19.00;82.60
74368;DHT22;64991;41.090;-8.118;2023-11-21T12:38:21;19.00;82.80
74368;DHT22;64991;41.090;-8.118;2023-11-21T12:43:26;19.10;82.80
74368;DHT22;64991;41.090;-8.118;2023-11-21T12:48:31;19.00;82.90
74368;DHT22;64991;41.090;-8.118;2023-11-21T12:53:35;19.00;82.80
74368;DHT22;64991;41.090;-8.118;2023-11-21T12:58:40;19.10;82.90
74368;DHT22;64991;41.090;-8.118;2023-11-21T13:03:50;19.00;82.70
74368;DHT22;64991;41.090;-8.118;2023-11-21T13:08:54;19.10;82.70
74368;DHT22;64991;41.090;-8.118;2023-11-21T13:13:59;19.10;82.80
74368;DHT22;64991;41.090;-8.118;2023-11-21T13:19:04;19.10;82.80
74368;DHT22;64991;41.090;-8.118;2023-11-21T13:24:07;19.10;82.90
74368;DHT22;64991;41.090;-8.118;2023-11-21T13:29:11;19.00;82.60
74368;DHT22;64991;41.090;-8.118;2023-11-21T13:34:17;19.00;82.90
74368;DHT22;64991;41.090;-8.118;2023-11-21T13:39:29;19.10;82.80
74368;DHT22;64991;41.090;-8.118;2023-11-21T13:44:34;19.10;83.00
74368;DHT22;64991;41.090;-8.118;2023-11-21T13:49:41;19.10;82.80
74368;DHT22;64991;41.090;-8.118;2023-11-21T13:54:45;19.10;83.20
74368;DHT22;64991;41.090;-8.118;2023-11-21T13:59:49;19.10;83.00
74368;DHT22;64991;41.090;-8.118;2023-11-21T14:04:54;19.10;82.90
74368;DHT22;64991;41.090;-8.118;2023-11-21T14:10:01;19.10;83.10
74368;DHT22;64991;41.090;-8.118;2023-11-21T14:15:06;19.00;82.90
74368;DHT22;64991;41.090;-8.118;2023-11-21T14:20:13;19.10;83.10
74368;DHT22;64991;41.090;-8.118;2023-11-21T14:25:18;19.10;83.10
74368;DHT22;64991;41.090;-8.118;2023-11-21T14:30:23;19.10;82.90
74368;DHT22;64991;41.090;-8.118;2023-11-21T14:35:30;19.10;83.30
74368;DHT22;64991;41.090;-8.118;2023-11-21T14:40:34;19.10;83.30
74368;DHT22;64991;41.090;-8.118;2023-11-21T14:45:38;19.10;83.20
74368;DHT22;64991;41.090;-8.118;2023-11-21T14:50:42;19.00;83.20
74368;DHT22;64991;41.090;-8.118;2023-11-21T14:56:11;19.10;82.90
74368;DHT22;64991;41.090;-8.118;2023-11-21T15:01:23;19.10;83.00
74368;DHT22;64991;41.090;-8.118;2023-11-21T15:06:46;19.10;83.10
74368;DHT22;64991;41.090;-8.118;2023-11-21T15:11:50;19.10;83.10
74368;DHT22;64991;41.090;-8.118;2023-11-21T15:16:58;19.10;82.60
74368;DHT22;64991;41.090;-8.118;2023-11-21T15:22:05;19.10;82.90
74368;DHT22;64991;41.090;-8.118;2023-11-21T15:27:09;19.00;82.70
74368;DHT22;64991;41.090;-8.118;2023-11-21T15:32:12;19.00;82.80
74368;DHT22;64991;41.090;-8.118;2023-11-21T15:37:17;19.00;82.50
74368;DHT22;64991;41.090;-8.118;2023-11-21T15:42:21;19.10;82.40
74368;DHT22;64991;41.090;-8.118;2023-11-21T15:47:25;19.10;82.30
74368;DHT22;64991;41.090;-8.118;2023-11-21T15:57:33;19.10;82.20
74368;DHT22;64991;41.090;-8.118;2023-11-21T16:02:36;19.00;82.30
74368;DHT22;64991;41.090;-8.118;2023-11-21T16:07:41;19.00;82.10
74368;DHT22;64991;41.090;-8.118;2023-11-21T16:12:46;19.00;82.20
74368;DHT22;64991;41.090;-8.118;2023-11-21T16:17:50;19.00;82.00
74368;DHT22;64991;41.090;-8.118;2023-11-21T16:22:53;19.00;82.40
74368;DHT22;64991;41.090;-8.118;2023-11-21T16:27:58;19.00;82.20
74368;DHT22;64991;41.090;-8.118;2023-11-21T16:33:06;19.00;82.30
74368;DHT22;64991;41.090;-8.118;2023-11-21T16:38:09;19.00;82.30
74368;DHT22;64991;41.090;-8.118;2023-11-21T16:43:15;19.00;81.90
74368;DHT22;64991;41.090;-8.118;2023-11-21T16:48:19;19.00;82.20
74368;DHT22;64991;41.090;-8.118;2023-11-21T16:53:23;19.00;82.10
74368;DHT22;64991;41.090;-8.118;2023-11-21T16:58:27;19.00;82.00
74368;DHT22;64991;41.090;-8.118;2023-11-21T17:03:31;19.00;82.30
74368;DHT22;64991;41.090;-8.118;2023-11-21T17:08:35;19.00;82.20
74368;DHT22;64991;41.090;-8.118;2023-11-21T17:13:39;19.00;82.00
74368;DHT22;64991;41.090;-8.118;2023-11-21T17:18:43;19.00;82.10
74368;DHT22;64991;41.090;-8.118;2023-11-21T17:23:46;18.90;81.80
74368;DHT22;64991;41.090;-8.118;2023-11-21T17:28:51;19.00;81.70
74368;DHT22;64991;41.090;-8.118;2023-11-21T17:33:56;19.00;81.60
74368;DHT22;64991;41.090;-8.118;2023-11-21T17:38:59;19.00;81.90
74368;DHT22;64991;41.090;-8.118;2023-11-21T17:44:04;19.00;81.70
74368;DHT22;64991;41.090;-8.118;2023-11-21T17:49:08;19.00;81.60
74368;DHT22;64991;41.090;-8.118;2023-11-21T17:54:12;18.90;81.60
74368;DHT22;64991;41.090;-8.118;2023-11-21T17:59:17;18.90;81.90
74368;DHT22;64991;41.090;-8.118;2023-11-21T18:04:20;18.90;82.10
74368;DHT22;64991;41.090;-8.118;2023-11-21T18:09:24;18.90;81.70
74368;DHT22;64991;41.090;-8.118;2023-11-21T18:14:29;18.90;81.60
74368;DHT22;64991;41.090;-8.118;2023-11-21T18:19:33;19.00;81.60
74368;DHT22;64991;41.090;-8.118;2023-11-21T18:24:37;18.90;81.70
74368;DHT22;64991;41.090;-8.118;2023-11-21T18:29:42;19.00;81.80
74368;DHT22;64991;41.090;-8.118;2023-11-21T18:34:46;19.00;81.70
74368;DHT22;64991;41.090;-8.118;2023-11-21T18:39:50;18.90;81.80
74368;DHT22;64991;41.090;-8.118;2023-11-21T18:44:55;18.90;81.60
74368;DHT22;64991;41.090;-8.118;2023-11-21T18:50:00;18.90;81.70
74368;DHT22;64991;41.090;-8.118;2023-11-21T18:55:05;19.00;81.80
74368;DHT22;64991;41.090;-8.118;2023-11-21T19:00:10;18.90;82.00
74368;DHT22;64991;41.090;-8.118;2023-11-21T19:05:16;18.90;81.60
74368;DHT22;64991;41.090;-8.118;2023-11-21T19:10:20;19.00;81.60
74368;DHT22;64991;41.090;-8.118;2023-11-21T19:15:25;18.90;81.60
74368;DHT22;64991;41.090;-8.118;2023-11-21T19:20:30;18.90;81.70
74368;DHT22;64991;41.090;-8.118;2023-11-21T19:25:34;18.90;81.70
74368;DHT22;64991;41.090;-8.118;2023-11-21T19:30:39;18.90;81.90
74368;DHT22;64991;41.090;-8.118;2023-11-21T19:35:43;18.90;81.70
74368;DHT22;64991;41.090;-8.118;2023-11-21T19:40:47;18.90;81.70
74368;DHT22;64991;41.090;-8.118;2023-11-21T19:45:52;18.90;81.80
74368;DHT22;64991;41.090;-8.118;2023-11-21T19:50:56;18.90;81.70
74368;DHT22;64991;41.090;-8.118;2023-11-21T19:55:59;18.90;81.80
74368;DHT22;64991;41.090;-8.118;2023-11-21T20:01:04;18.90;81.50
74368;DHT22;64991;41.090;-8.118;2023-11-21T20:06:08;18.90;81.40
74368;DHT22;64991;41.090;-8.118;2023-11-21T20:11:11;18.90;81.70
74368;DHT22;64991;41.090;-8.118;2023-11-21T20:16:17;18.90;81.80
74368;DHT22;64991;41.090;-8.118;2023-11-21T20:21:21;18.90;81.90
74368;DHT22;64991;41.090;-8.118;2023-11-21T20:26:25;18.80;82.00
74368;DHT22;64991;41.090;-8.118;2023-11-21T20:31:30;19.00;81.60
74368;DHT22;64991;41.090;-8.118;2023-11-21T20:36:33;18.90;81.70
74368;DHT22;64991;41.090;-8.118;2023-11-21T20:41:39;18.90;81.40
74368;DHT22;64991;41.090;-8.118;2023-11-21T20:46:44;18.90;81.40
74368;DHT22;64991;41.090;-8.118;2023-11-21T20:51:51;19.00;81.70
74368;DHT22;64991;41.090;-8.118;2023-11-21T20:56:55;18.90;81.60
74368;DHT22;64991;41.090;-8.118;2023-11-21T21:02:00;18.80;81.30
74368;DHT22;64991;41.090;-8.118;2023-11-21T21:07:03;18.90;81.40
74368;DHT22;64991;41.090;-8.118;2023-11-21T21:12:08;18.90;81.30
74368;DHT22;64991;41.090;-8.118;2023-11-21T21:17:14;18.90;81.30
74368;DHT22;64991;41.090;-8.118;2023-11-21T21:22:18;18.90;81.50
74368;DHT22;64991;41.090;-8.118;2023-11-21T21:27:21;18.90;81.50
74368;DHT22;64991;41.090;-8.118;2023-11-21T21:32:26;18.80;81.40
74368;DHT22;64991;41.090;-8.118;2023-11-21T21:37:30;18.80;81.40
74368;DHT22;64991;41.090;-8.118;2023-11-21T21:42:33;18.80;81.30
74368;DHT22;64991;41.090;-8.118;2023-11-21T21:47:38;18.80;81.40
74368;DHT22;64991;41.090;-8.118;2023-11-21T21:52:42;18.80;81.20
74368;DHT22;64991;41.090;-8.118;2023-11-21T21:57:46;18.90;81.30
74368;DHT22;64991;41.090;-8.118;2023-11-21T22:02:51;18.80;81.30
74368;DHT22;64991;41.090;-8.118;2023-11-21T22:07:55;18.80;81.30
74368;DHT22;64991;41.090;-8.118;2023-11-21T22:12:59;18.80;81.40
74368;DHT22;64991;41.090;-8.118;2023-11-21T22:18:04;18.80;81.40
74368;DHT22;64991;41.090;-8.118;2023-11-21T22:23:07;18.80;81.20
74368;DHT22;64991;41.090;-8.118;2023-11-21T22:28:12;18.90;80.90
74368;DHT22;64991;41.090;-8.118;2023-11-21T22:33:17;18.80;81.30
74368;DHT22;64991;41.090;-8.118;2023-11-21T22:38:21;18.80;81.30
74368;DHT22;64991;41.090;-8.118;2023-11-21T22:43:25;18.70;81.20
74368;DHT22;64991;41.090;-8.118;2023-11-21T22:48:30;18.80;81.00
74368;DHT22;64991;41.090;-8.118;2023-11-21T22:53:33;18.80;81.00
74368;DHT22;64991;41.090;-8.118;2023-11-21T22:58:37;18.80;81.00
74368;DHT22;64991;41.090;-8.118;2023-11-21T23:03:43;18.80;81.00
74368;DHT22;64991;41.090;-8.118;2023-11-21T23:08:47;18.70;81.10
74368;DHT22;64991;41.090;-8.118;2023-11-21T23:13:50;18.70;80.80
74368;DHT22;64991;41.090;-8.118;2023-11-21T23:18:55;18.70;81.10
74368;DHT22;64991;41.090;-8.118;2023-11-21T23:23:59;18.70;80.90
74368;DHT22;64991;41.090;-8.118;2023-11-21T23:29:08;18.70;81.00
74368;DHT22;64991;41.090;-8.118;2023-11-21T23:34:13;18.70;80.90
74368;DHT22;64991;41.090;-8.118;2023-11-21T23:39:17;18.70;80.70
74368;DHT22;64991;41.090;-8.118;2023-11-21T23:44:21;18.60;80.90
74368;DHT22;64991;41.090;-8.118;2023-11-21T23:49:28;18.70;80.70
74368;DHT22;64991;41.090;-8.118;2023-11-21T23:54:31;18.70;80.80
74368;DHT22;64991;41.090;-8.118;2023-11-21T23:59:36;18.70;81.00
